Time;durP1;ratioP1;P1;durP2;ratioP2;P2;SDS_P1;SDS_P2;PMS_P1;PMS_P2;Temp;Humidity;BMP_temperature;BMP_pressure;BME280_temperature;BME280_humidity;BME280_pressure;Samples;Min_cycle;Max_cycle;Signal;HPM_P1;HPM_P2
2022/12/19 00:01:58;;;;;;;;;;;18.50;51.40;;;;;;4448887;32;19966;-79
2022/12/19 00:04:24;;;;;;;;;;;18.40;51.40;;;;;;4438443;32;19974;-80
2022/12/19 00:06:50;;;;;;;;;;;18.40;51.50;;;;;;4449024;32;19998;-79
2022/12/19 00:09:16;;;;;;;;;;;18.40;51.60;;;;;;4463080;32;20499;-80
2022/12/19 00:11:41;;;;;;;;;;;18.30;51.60;;;;;;4449077;32;19966;-80
2022/12/19 00:14:14;;;;;;;;;;;18.30;51.60;;;;;;4449721;32;19974;-79
2022/12/19 00:16:40;;;;;;;;;;;18.30;51.70;;;;;;4448474;32;19978;-79
2022/12/19 00:19:05;;;;;;;;;;;18.30;51.70;;;;;;4462970;32;19981;-80
2022/12/19 00:21:32;;;;;;;;;;;18.20;51.70;;;;;;4462721;32;19962;-79
2022/12/19 00:23:58;;;;;;;;;;;18.20;51.70;;;;;;4462694;32;20466;-79
2022/12/19 00:26:25;;;;;;;;;;;18.20;51.70;;;;;;4448497;32;20390;-80
2022/12/19 00:28:55;;;;;;;;;;;18.20;51.80;;;;;;4462730;32;20010;-79
2022/12/19 00:31:21;;;;;;;;;;;18.20;51.80;;;;;;4462703;32;20453;-79
2022/12/19 00:33:47;;;;;;;;;;;18.10;52.80;;;;;;4448623;32;19966;-79
2022/12/19 00:36:14;;;;;;;;;;;18.10;51.80;;;;;;4448670;32;19982;-79
2022/12/19 00:38:40;;;;;;;;;;;18.10;51.90;;;;;;4462470;32;20075;-79
2022/12/19 00:41:06;;;;;;;;;;;18.00;51.80;;;;;;4462748;32;19985;-79
2022/12/19 00:43:32;;;;;;;;;;;18.00;51.90;;;;;;4448373;32;19970;-79
2022/12/19 00:46:00;;;;;;;;;;;18.00;51.90;;;;;;4435081;32;19974;-79
2022/12/19 00:48:26;;;;;;;;;;;18.00;51.90;;;;;;4462245;32;20116;-79
2022/12/19 00:50:57;;;;;;;;;;;17.90;51.90;;;;;;4462663;32;20311;-79
2022/12/19 00:53:23;;;;;;;;;;;17.90;51.90;;;;;;4462472;32;20097;-79
2022/12/19 00:55:49;;;;;;;;;;;17.90;52.00;;;;;;4462115;32;19978;-79
2022/12/19 00:58:14;;;;;;;;;;;17.90;52.00;;;;;;4462314;32;19982;-79
2022/12/19 01:00:43;;;;;;;;;;;17.90;52.00;;;;;;4448513;32;20108;-79
2022/12/19 01:03:08;;;;;;;;;;;17.90;52.10;;;;;;4462198;32;20051;-79
2022/12/19 01:05:42;;;;;;;;;;;17.80;52.10;;;;;;4448930;32;19966;-79
2022/12/19 01:08:07;;;;;;;;;;;17.80;52.10;;;;;;4462087;32;19982;-79
2022/12/19 01:10:33;;;;;;;;;;;17.80;52.10;;;;;;4462197;32;19962;-80
2022/12/19 01:12:59;;;;;;;;;;;17.80;52.10;;;;;;4462406;32;20107;-79
2022/12/19 01:15:25;;;;;;;;;;;17.80;52.10;;;;;;4462238;32;19966;-79
2022/12/19 01:17:50;;;;;;;;;;;17.80;52.10;;;;;;4448440;32;20538;-79
2022/12/19 01:20:17;;;;;;;;;;;17.80;52.10;;;;;;4462840;32;20056;-79
2022/12/19 01:22:43;;;;;;;;;;;17.70;52.10;;;;;;4462543;32;20093;-79
2022/12/19 01:25:09;;;;;;;;;;;17.70;52.10;;;;;;4462466;32;19988;-79
2022/12/19 01:27:34;;;;;;;;;;;17.70;52.00;;;;;;4448564;32;19970;-80
2022/12/19 01:30:00;;;;;;;;;;;17.80;52.00;;;;;;4448407;32;20046;-79
2022/12/19 01:32:26;;;;;;;;;;;17.80;51.90;;;;;;4448677;32;19958;-79
2022/12/19 01:34:51;;;;;;;;;;;17.80;51.80;;;;;;4462526;32;19970;-79
2022/12/19 01:37:18;;;;;;;;;;;17.90;51.70;;;;;;4462583;32;19981;-79
2022/12/19 01:39:44;;;;;;;;;;;17.90;51.50;;;;;;4448547;32;19986;-79
2022/12/19 01:42:18;;;;;;;;;;;18.00;51.40;;;;;;4448341;32;20040;-79
2022/12/19 01:45:02;;;;;;;;;;;18.00;51.20;;;;;;4462320;32;19974;-79
2022/12/19 01:47:28;;;;;;;;;;;18.00;51.10;;;;;;4462503;32;20040;-79
2022/12/19 01:49:55;;;;;;;;;;;18.10;51.00;;;;;;4448000;32;19978;-79
2022/12/19 01:52:21;;;;;;;;;;;18.10;50.90;;;;;;4462457;32;20053;-79
2022/12/19 01:54:47;;;;;;;;;;;18.10;50.80;;;;;;4462380;32;19996;-79
2022/12/19 01:57:14;;;;;;;;;;;18.10;50.80;;;;;;4448018;32;20052;-80
2022/12/19 01:59:42;;;;;;;;;;;18.10;50.70;;;;;;4462216;32;20160;-79
2022/12/19 02:02:10;;;;;;;;;;;18.10;50.70;;;;;;4434953;32;19978;-79
2022/12/19 02:04:37;;;;;;;;;;;18.10;50.70;;;;;;4461347;32;20076;-80
2022/12/19 02:07:05;;;;;;;;;;;18.10;50.70;;;;;;4461536;32;19970;-79
2022/12/19 02:09:30;;;;;;;;;;;18.10;50.70;;;;;;4461424;32;20036;-80
2022/12/19 02:11:58;;;;;;;;;;;18.10;50.70;;;;;;4447539;32;19970;-79
2022/12/19 02:14:24;;;;;;;;;;;18.10;50.70;;;;;;4461157;32;20435;-80
2022/12/19 02:17:09;;;;;;;;;;;18.10;50.70;;;;;;4460934;32;19988;-79
2022/12/19 02:20:01;;;;;;;;;;;18.00;50.60;;;;;;4461011;32;20398;-80
2022/12/19 02:22:45;;;;;;;;;;;18.10;51.60;;;;;;4461310;32;20025;-79
2022/12/19 02:25:14;;;;;;;;;;;18.10;50.60;;;;;;4460947;32;20478;-79
2022/12/19 02:27:58;;;;;;;;;;;18.00;50.60;;;;;;4461180;32;20398;-80
2022/12/19 02:30:30;;;;;;;;;;;18.00;50.50;;;;;;4461202;32;20025;-79
2022/12/19 02:32:56;;;;;;;;;;;18.10;50.60;;;;;;4447171;32;20323;-79
2022/12/19 02:35:32;;;;;;;;;;;18.00;50.60;;;;;;4460997;32;19974;-80
2022/12/19 02:38:07;;;;;;;;;;;18.00;50.60;;;;;;4461050;32;20418;-79
2022/12/19 02:40:34;;;;;;;;;;;18.00;50.50;;;;;;4460854;32;20387;-80
2022/12/19 02:43:02;;;;;;;;;;;18.00;50.50;;;;;;4447032;32;20435;-79
2022/12/19 02:45:34;;;;;;;;;;;18.00;50.50;;;;;;4460393;32;19989;-79
2022/12/19 02:48:08;;;;;;;;;;;18.00;50.50;;;;;;4461043;32;20289;-80
2022/12/19 02:50:38;;;;;;;;;;;18.00;50.50;;;;;;4460567;32;19970;-80
2022/12/19 02:53:05;;;;;;;;;;;18.00;50.50;;;;;;4461051;32;20108;-80
2022/12/19 02:55:34;;;;;;;;;;;18.00;50.50;;;;;;4446814;32;21324;-79
2022/12/19 02:58:00;;;;;;;;;;;18.00;50.50;;;;;;4461136;32;19986;-80
2022/12/19 03:00:27;;;;;;;;;;;18.00;50.50;;;;;;4460780;32;20099;-79
2022/12/19 03:02:53;;;;;;;;;;;18.00;50.50;;;;;;4460984;32;20427;-79
2022/12/19 03:05:25;;;;;;;;;;;18.00;51.40;;;;;;4460875;32;20388;-79
2022/12/19 03:07:55;;;;;;;;;;;18.00;50.60;;;;;;4460879;32;20466;-79
2022/12/19 03:10:26;;;;;;;;;;;18.00;50.50;;;;;;4460745;32;20698;-79
2022/12/19 03:12:55;;;;;;;;;;;18.00;50.60;;;;;;4446511;32;20116;-79
2022/12/19 03:15:21;;;;;;;;;;;18.00;50.60;;;;;;4460508;32;20014;-79
2022/12/19 03:17:47;;;;;;;;;;;17.90;50.50;;;;;;4460620;32;20351;-80
2022/12/19 03:20:31;;;;;;;;;;;18.00;50.60;;;;;;4446630;32;20319;-79
2022/12/19 03:22:57;;;;;;;;;;;17.90;50.60;;;;;;4446629;32;19989;-79
2022/12/19 03:25:24;;;;;;;;;;;18.00;50.60;;;;;;4460757;32;20021;-79
2022/12/19 03:27:51;;;;;;;;;;;17.90;50.50;;;;;;4460718;32;19971;-79
2022/12/19 03:30:17;;;;;;;;;;;17.90;50.60;;;;;;4460544;32;19985;-79
2022/12/19 03:32:44;;;;;;;;;;;17.90;50.60;;;;;;4460682;32;20032;-79
2022/12/19 03:35:13;;;;;;;;;;;17.90;50.70;;;;;;4461076;32;19981;-79
2022/12/19 03:37:40;;;;;;;;;;;17.90;50.60;;;;;;4463791;32;20039;-79
2022/12/19 03:40:16;;;;;;;;;;;17.90;50.60;;;;;;4463400;32;19978;-79
2022/12/19 03:45:32;;;;;;;;;;;17.90;50.60;;;;;;4463023;32;20001;-80
2022/12/19 03:48:02;;;;;;;;;;;17.90;50.70;;;;;;4463728;32;20517;-79
2022/12/19 03:50:45;;;;;;;;;;;17.90;50.70;;;;;;4463128;32;19986;-79
2022/12/19 03:53:15;;;;;;;;;;;17.90;50.60;;;;;;4461794;32;20323;-79
2022/12/19 03:55:52;;;;;;;;;;;17.90;50.60;;;;;;4463229;32;20111;-79
2022/12/19 03:58:31;;;;;;;;;;;17.90;50.70;;;;;;4463113;32;20498;-79
2022/12/19 04:00:58;;;;;;;;;;;17.90;50.60;;;;;;4453274;32;19970;-79
2022/12/19 04:03:33;;;;;;;;;;;17.90;50.60;;;;;;4453476;32;19993;-79
2022/12/19 04:05:59;;;;;;;;;;;17.90;50.60;;;;;;4449088;32;20033;-79
2022/12/19 04:08:26;;;;;;;;;;;17.90;50.60;;;;;;4462978;32;20008;-79
2022/12/19 04:10:54;;;;;;;;;;;17.90;50.60;;;;;;4463013;32;20022;-78
2022/12/19 04:13:35;;;;;;;;;;;17.90;50.60;;;;;;4449056;32;20039;-78
2022/12/19 04:16:01;;;;;;;;;;;17.80;50.60;;;;;;4463054;32;20020;-78
2022/12/19 04:18:28;;;;;;;;;;;17.80;50.60;;;;;;4462841;32;19970;-78
2022/12/19 04:20:57;;;;;;;;;;;17.80;50.60;;;;;;4463060;32;20060;-78
2022/12/19 04:23:29;;;;;;;;;;;17.80;50.60;;;;;;4462784;32;20008;-78
2022/12/19 04:25:58;;;;;;;;;;;17.80;50.60;;;;;;4462972;32;19978;-78
2022/12/19 04:28:29;;;;;;;;;;;17.80;50.60;;;;;;4448707;32;20037;-78
2022/12/19 04:30:55;;;;;;;;;;;17.80;50.60;;;;;;4463066;32;19984;-78
2022/12/19 04:33:21;;;;;;;;;;;17.80;50.60;;;;;;4462773;32;20026;-78
2022/12/19 04:35:47;;;;;;;;;;;17.80;50.60;;;;;;4462617;32;19981;-78
2022/12/19 04:38:13;;;;;;;;;;;17.80;50.60;;;;;;4435950;32;19962;-78
2022/12/19 04:40:38;;;;;;;;;;;17.80;50.60;;;;;;4462547;32;19966;-78
2022/12/19 04:43:06;;;;;;;;;;;17.80;50.60;;;;;;4462747;32;19962;-78
2022/12/19 04:45:33;;;;;;;;;;;17.80;50.60;;;;;;4462007;32;19986;-78
2022/12/19 04:47:58;;;;;;;;;;;17.80;50.70;;;;;;4462358;32;19977;-78
2022/12/19 04:50:24;;;;;;;;;;;17.80;50.70;;;;;;4462180;32;19966;-78
2022/12/19 04:52:51;;;;;;;;;;;17.80;50.70;;;;;;4448805;32;20155;-78
2022/12/19 04:55:17;;;;;;;;;;;17.80;50.70;;;;;;4462391;32;19974;-78
2022/12/19 04:57:43;;;;;;;;;;;17.80;50.70;;;;;;4462224;32;20025;-77
2022/12/19 05:00:10;;;;;;;;;;;17.80;50.80;;;;;;4462393;32;19966;-78
2022/12/19 05:02:36;;;;;;;;;;;17.80;50.80;;;;;;4447911;32;20327;-78
2022/12/19 05:05:07;;;;;;;;;;;17.80;50.80;;;;;;4462411;32;19989;-77
2022/12/19 05:07:33;;;;;;;;;;;17.80;50.80;;;;;;4462114;32;19962;-77
2022/12/19 05:09:59;;;;;;;;;;;17.80;50.80;;;;;;4462376;32;20063;-77
2022/12/19 05:12:25;;;;;;;;;;;17.80;50.80;;;;;;4462223;32;20092;-77
2022/12/19 05:14:51;;;;;;;;;;;17.80;50.80;;;;;;4461886;32;20307;-77
2022/12/19 05:17:17;;;;;;;;;;;17.80;50.80;;;;;;4461720;32;20497;-77
2022/12/19 05:19:42;;;;;;;;;;;17.80;50.80;;;;;;4447940;32;19982;-77
2022/12/19 05:22:08;;;;;;;;;;;17.80;50.80;;;;;;4448091;32;19985;-77
2022/12/19 05:24:34;;;;;;;;;;;17.80;50.80;;;;;;4461758;32;19985;-78
2022/12/19 05:26:59;;;;;;;;;;;17.80;50.90;;;;;;4462193;32;19982;-78
2022/12/19 05:29:25;;;;;;;;;;;17.80;50.90;;;;;;4461856;32;20021;-77
2022/12/19 05:31:51;;;;;;;;;;;17.80;50.90;;;;;;4461735;32;20135;-78
2022/12/19 05:34:17;;;;;;;;;;;17.80;50.90;;;;;;4447833;32;20388;-78
2022/12/19 05:36:45;;;;;;;;;;;17.80;50.90;;;;;;4461697;32;20045;-77
2022/12/19 05:39:11;;;;;;;;;;;17.80;50.90;;;;;;4461884;32;20096;-78
2022/12/19 05:41:37;;;;;;;;;;;17.80;50.90;;;;;;4461608;32;19963;-78
2022/12/19 05:44:02;;;;;;;;;;;17.80;51.00;;;;;;4461750;32;20443;-78
2022/12/19 05:46:35;;;;;;;;;;;17.70;50.90;;;;;;4461435;32;19986;-78
2022/12/19 05:49:01;;;;;;;;;;;17.70;51.00;;;;;;4461204;32;19981;-77
2022/12/19 05:51:27;;;;;;;;;;;17.80;51.00;;;;;;4447702;32;19985;-78
2022/12/19 05:53:53;;;;;;;;;;;17.80;51.00;;;;;;4461422;32;20427;-77
2022/12/19 05:56:20;;;;;;;;;;;17.80;51.00;;;;;;4461660;32;19986;-78
2022/12/19 05:58:46;;;;;;;;;;;17.80;51.00;;;;;;4460736;32;20436;-77
2022/12/19 06:01:13;;;;;;;;;;;17.70;51.00;;;;;;4461441;32;20152;-78
2022/12/19 06:03:39;;;;;;;;;;;17.70;51.00;;;;;;4461464;32;20442;-77
2022/12/19 06:06:07;;;;;;;;;;;17.70;51.00;;;;;;4461133;32;19963;-77
2022/12/19 06:08:33;;;;;;;;;;;17.70;51.10;;;;;;4447470;32;19993;-78
2022/12/19 06:11:00;;;;;;;;;;;17.70;51.10;;;;;;4447219;32;19970;-78
2022/12/19 06:13:26;;;;;;;;;;;17.70;51.10;;;;;;4461187;32;20038;-77
2022/12/19 06:16:03;;;;;;;;;;;17.70;51.10;;;;;;4461199;32;19985;-77
2022/12/19 06:18:29;;;;;;;;;;;17.70;51.10;;;;;;4450866;32;19989;-77
2022/12/19 06:21:05;;;;;;;;;;;17.70;51.10;;;;;;4461294;32;19988;-77
2022/12/19 06:23:32;;;;;;;;;;;17.70;51.10;;;;;;4461044;32;20781;-77
2022/12/19 06:25:58;;;;;;;;;;;17.70;51.10;;;;;;4460954;32;20493;-77
2022/12/19 06:28:27;;;;;;;;;;;17.70;51.10;;;;;;4460855;32;20088;-77
2022/12/19 06:30:57;;;;;;;;;;;17.70;51.10;;;;;;4461167;32;20036;-77
2022/12/19 06:33:23;;;;;;;;;;;17.70;51.10;;;;;;4460841;32;19974;-76
2022/12/19 06:35:59;;;;;;;;;;;17.70;51.20;;;;;;4460894;32;19978;-76
2022/12/19 06:38:25;;;;;;;;;;;17.70;51.20;;;;;;4460781;32;19978;-76
2022/12/19 06:43:35;;;;;;;;;;;17.70;51.20;;;;;;4460826;32;20396;-76
2022/12/19 06:46:01;;;;;;;;;;;17.70;51.20;;;;;;4460491;32;19990;-77
2022/12/19 06:48:28;;;;;;;;;;;17.70;51.20;;;;;;4460728;32;19992;-76
2022/12/19 06:50:54;;;;;;;;;;;17.70;51.30;;;;;;4460633;32;20036;-76
2022/12/19 06:53:19;;;;;;;;;;;17.70;51.30;;;;;;4461034;32;20043;-76
2022/12/19 06:55:45;;;;;;;;;;;17.70;51.30;;;;;;4460594;32;19962;-76
2022/12/19 06:58:11;;;;;;;;;;;17.70;51.30;;;;;;4460856;32;20421;-76
2022/12/19 07:00:37;;;;;;;;;;;17.70;51.30;;;;;;4460650;32;19978;-76
2022/12/19 07:03:11;;;;;;;;;;;17.70;51.30;;;;;;4450075;32;20096;-76
2022/12/19 07:05:37;;;;;;;;;;;17.70;51.30;;;;;;4460654;32;19993;-76
2022/12/19 07:08:03;;;;;;;;;;;17.70;51.30;;;;;;4460601;32;19966;-75
2022/12/19 07:10:29;;;;;;;;;;;17.70;51.30;;;;;;4462973;32;19978;-76
2022/12/19 07:12:55;;;;;;;;;;;17.70;51.40;;;;;;4463687;32;19966;-76
2022/12/19 07:15:20;;;;;;;;;;;17.70;51.40;;;;;;4463644;32;19966;-76
2022/12/19 07:17:46;;;;;;;;;;;17.60;51.30;;;;;;4463698;32;20104;-76
2022/12/19 07:20:13;;;;;;;;;;;17.70;51.40;;;;;;4463710;32;20167;-75
2022/12/19 07:22:39;;;;;;;;;;;17.70;51.40;;;;;;4449903;32;20103;-75
2022/12/19 07:25:05;;;;;;;;;;;17.70;51.40;;;;;;4463543;32;19986;-75
2022/12/19 07:27:32;;;;;;;;;;;17.70;51.40;;;;;;4463715;32;20335;-76
2022/12/19 07:29:57;;;;;;;;;;;17.60;51.40;;;;;;4463561;32;20045;-76
2022/12/19 07:32:24;;;;;;;;;;;17.70;51.50;;;;;;4463720;32;19989;-76
2022/12/19 07:34:53;;;;;;;;;;;17.70;51.50;;;;;;4463274;32;19978;-76
2022/12/19 07:37:20;;;;;;;;;;;17.60;51.40;;;;;;4463671;32;20164;-76
2022/12/19 07:39:46;;;;;;;;;;;17.60;51.50;;;;;;4463425;32;19967;-76
2022/12/19 07:42:12;;;;;;;;;;;17.60;51.50;;;;;;4463291;32;20032;-76
2022/12/19 07:44:38;;;;;;;;;;;17.60;51.50;;;;;;4463432;32;19971;-76
2022/12/19 07:47:04;;;;;;;;;;;17.60;51.60;;;;;;4462958;32;19970;-76
2022/12/19 07:49:31;;;;;;;;;;;17.50;51.60;;;;;;4463120;32;20028;-76
2022/12/19 07:52:09;;;;;;;;;;;17.60;51.70;;;;;;4463225;32;19993;-76
2022/12/19 07:54:34;;;;;;;;;;;17.60;51.70;;;;;;4463365;32;19982;-76
2022/12/19 07:57:01;;;;;;;;;;;17.60;51.70;;;;;;4463017;32;20473;-76
2022/12/19 07:59:27;;;;;;;;;;;17.50;51.70;;;;;;4436361;32;19970;-75
2022/12/19 08:01:53;;;;;;;;;;;17.50;51.70;;;;;;4462962;32;20507;-76
2022/12/19 08:04:24;;;;;;;;;;;17.50;51.90;;;;;;4462994;32;19988;-77
2022/12/19 08:06:50;;;;;;;;;;;17.50;53.30;;;;;;4463228;32;19974;-76
2022/12/19 08:09:15;;;;;;;;;;;17.50;54.00;;;;;;4463038;32;19985;-76
2022/12/19 08:11:41;;;;;;;;;;;17.50;54.30;;;;;;4463269;32;20494;-75
2022/12/19 08:14:07;;;;;;;;;;;17.50;54.60;;;;;;4463128;32;20051;-75
2022/12/19 08:16:38;;;;;;;;;;;17.50;54.20;;;;;;4449005;32;20343;-76
2022/12/19 08:19:04;;;;;;;;;;;17.50;54.70;;;;;;4463115;32;19974;-76
2022/12/19 08:21:29;;;;;;;;;;;17.60;54.40;;;;;;4451136;32;19977;-75
2022/12/19 08:23:55;;;;;;;;;;;17.60;53.40;;;;;;4463112;32;20052;-75
2022/12/19 08:26:25;;;;;;;;;;;17.70;53.20;;;;;;4462575;32;19981;-76
2022/12/19 08:28:51;;;;;;;;;;;17.80;52.80;;;;;;4462858;32;19985;-76
2022/12/19 08:31:23;;;;;;;;;;;17.90;52.70;;;;;;4462715;32;19989;-76
2022/12/19 08:33:58;;;;;;;;;;;18.00;52.60;;;;;;4463052;32;19994;-76
2022/12/19 08:36:24;;;;;;;;;;;18.20;52.40;;;;;;4462806;32;19985;-76
2022/12/19 08:38:50;;;;;;;;;;;18.30;52.20;;;;;;4462464;32;19967;-76
2022/12/19 08:41:16;;;;;;;;;;;18.50;52.00;;;;;;4462793;32;19966;-75
2022/12/19 08:43:46;;;;;;;;;;;18.60;51.80;;;;;;4462359;32;20176;-77
2022/12/19 08:46:12;;;;;;;;;;;18.70;51.60;;;;;;4462281;32;20017;-75
2022/12/19 08:48:38;;;;;;;;;;;18.80;51.30;;;;;;4462105;32;20001;-75
2022/12/19 08:51:05;;;;;;;;;;;19.00;51.10;;;;;;4462695;32;19996;-75
2022/12/19 08:53:32;;;;;;;;;;;19.10;50.90;;;;;;4461526;32;19993;-76
2022/12/19 08:56:06;;;;;;;;;;;19.20;50.60;;;;;;4445821;32;20043;-76
2022/12/19 08:58:35;;;;;;;;;;;19.30;51.40;;;;;;4459909;32;19986;-76
2022/12/19 09:01:03;;;;;;;;;;;19.40;50.30;;;;;;4446846;32;20296;-77
2022/12/19 09:03:30;;;;;;;;;;;19.50;50.20;;;;;;4461638;32;20040;-78
2022/12/19 09:05:56;;;;;;;;;;;19.50;50.20;;;;;;4459483;32;19986;-77
2022/12/19 09:08:28;;;;;;;;;;;19.60;50.10;;;;;;4447960;32;20038;-79
2022/12/19 09:10:58;;;;;;;;;;;19.60;50.10;;;;;;4460249;32;20002;-77
2022/12/19 09:13:25;;;;;;;;;;;19.70;50.10;;;;;;4446816;32;20403;-76
2022/12/19 09:15:58;;;;;;;;;;;19.70;50.00;;;;;;4460412;32;20040;-77
2022/12/19 09:18:23;;;;;;;;;;;19.70;50.00;;;;;;4460388;32;19966;-77
2022/12/19 09:20:54;;;;;;;;;;;19.70;50.00;;;;;;4461260;32;20033;-77
2022/12/19 09:23:20;;;;;;;;;;;19.80;50.10;;;;;;4459203;32;19982;-76
2022/12/19 09:25:46;;;;;;;;;;;19.80;50.00;;;;;;4459656;32;19982;-77
2022/12/19 09:28:21;;;;;;;;;;;19.80;50.00;;;;;;4458548;32;19971;-77
2022/12/19 09:30:57;;;;;;;;;;;19.80;50.00;;;;;;4460441;32;20057;-77
2022/12/19 09:33:34;;;;;;;;;;;19.80;50.00;;;;;;4457747;32;20057;-77
2022/12/19 09:36:00;;;;;;;;;;;19.90;50.00;;;;;;4459247;32;20521;-76
2022/12/19 09:38:32;;;;;;;;;;;19.90;50.10;;;;;;4457964;32;19994;-77
2022/12/19 09:41:05;;;;;;;;;;;19.90;50.00;;;;;;4459816;32;20418;-75
2022/12/19 09:43:31;;;;;;;;;;;19.90;50.00;;;;;;4460314;32;19974;-77
2022/12/19 09:46:15;;;;;;;;;;;19.90;50.00;;;;;;4459970;32;19980;-76
2022/12/19 09:48:41;;;;;;;;;;;19.90;50.00;;;;;;4440317;32;19990;-75
2022/12/19 09:51:11;;;;;;;;;;;19.90;50.00;;;;;;4445076;32;20025;-76
2022/12/19 09:53:57;;;;;;;;;;;20.00;50.00;;;;;;4455361;32;20029;-76
2022/12/19 09:56:26;;;;;;;;;;;20.00;50.00;;;;;;4454547;32;20042;-76
2022/12/19 09:58:55;;;;;;;;;;;20.00;50.10;;;;;;4454244;32;20037;-75
2022/12/19 10:01:28;;;;;;;;;;;20.00;50.00;;;;;;4456074;32;19978;-75
2022/12/19 10:04:03;;;;;;;;;;;20.00;50.00;;;;;;4461760;32;20332;-76
2022/12/19 10:06:30;;;;;;;;;;;20.00;50.00;;;;;;4447355;32;20073;-77
2022/12/19 10:08:56;;;;;;;;;;;20.10;50.00;;;;;;4461380;32;20327;-78
2022/12/19 10:11:36;;;;;;;;;;;20.10;50.10;;;;;;4460800;32;19981;-76
2022/12/19 10:14:11;;;;;;;;;;;20.10;50.10;;;;;;4461459;32;20095;-79
2022/12/19 10:16:40;;;;;;;;;;;20.10;50.20;;;;;;4460833;32;19998;-79
2022/12/19 10:19:08;;;;;;;;;;;20.10;50.20;;;;;;4447435;32;20327;-78
2022/12/19 10:21:52;;;;;;;;;;;20.10;50.30;;;;;;4461099;32;20092;-80
2022/12/19 10:24:21;;;;;;;;;;;20.10;50.40;;;;;;4461210;32;20060;-78
2022/12/19 10:26:51;;;;;;;;;;;20.10;50.40;;;;;;4460892;32;20017;-76
2022/12/19 10:29:17;;;;;;;;;;;20.10;50.50;;;;;;4461456;32;19985;-78
2022/12/19 10:31:57;;;;;;;;;;;20.10;50.50;;;;;;4460979;32;20367;-78
2022/12/19 10:34:32;;;;;;;;;;;20.10;50.60;;;;;;4447063;32;20080;-79
2022/12/19 10:37:08;;;;;;;;;;;20.10;50.60;;;;;;4460883;32;19978;-76
2022/12/19 10:39:50;;;;;;;;;;;20.10;50.70;;;;;;4461250;32;20510;-75
2022/12/19 10:42:20;;;;;;;;;;;20.10;50.70;;;;;;4461149;32;19992;-75
2022/12/19 10:44:48;;;;;;;;;;;20.10;50.80;;;;;;4460745;32;20022;-75
2022/12/19 10:47:16;;;;;;;;;;;20.10;50.80;;;;;;4460481;32;20378;-75
2022/12/19 10:49:42;;;;;;;;;;;20.10;50.80;;;;;;4460689;32;19978;-75
2022/12/19 10:52:10;;;;;;;;;;;20.10;50.90;;;;;;4460758;32;19986;-76
2022/12/19 10:54:36;;;;;;;;;;;20.10;50.90;;;;;;4461029;32;20111;-77
2022/12/19 10:57:18;;;;;;;;;;;20.10;50.90;;;;;;4460731;32;20157;-76
2022/12/19 11:00:05;;;;;;;;;;;20.10;50.90;;;;;;4461128;32;20293;-78
2022/12/19 11:02:37;;;;;;;;;;;20.10;51.00;;;;;;4460539;32;20387;-76
2022/12/19 11:05:04;;;;;;;;;;;20.20;51.00;;;;;;4446831;32;20099;-80
2022/12/19 11:07:30;;;;;;;;;;;20.20;51.10;;;;;;4460719;32;19970;-76
2022/12/19 11:09:56;;;;;;;;;;;20.20;51.10;;;;;;4456201;32;20426;-78
2022/12/19 11:12:26;;;;;;;;;;;20.20;51.10;;;;;;4459354;32;20095;-79
2022/12/19 11:15:02;;;;;;;;;;;20.20;51.20;;;;;;4457893;32;20004;-78
2022/12/19 11:17:30;;;;;;;;;;;20.10;51.20;;;;;;4459231;32;19993;-80
2022/12/19 11:19:57;;;;;;;;;;;20.10;51.30;;;;;;4459115;32;19982;-80
2022/12/19 11:22:27;;;;;;;;;;;20.10;51.50;;;;;;4460173;32;20092;-78
2022/12/19 11:24:53;;;;;;;;;;;20.10;51.50;;;;;;4456174;32;20464;-79
2022/12/19 11:27:34;;;;;;;;;;;20.10;51.50;;;;;;4445162;32;20447;-77
2022/12/19 11:30:00;;;;;;;;;;;20.10;51.60;;;;;;4454162;32;20400;-76
2022/12/19 11:32:32;;;;;;;;;;;20.10;51.60;;;;;;4455366;32;19994;-77
2022/12/19 11:35:02;;;;;;;;;;;20.00;51.70;;;;;;4455132;32;20104;-75
2022/12/19 11:37:45;;;;;;;;;;;20.00;51.90;;;;;;4454892;32;20406;-78
2022/12/19 11:40:20;;;;;;;;;;;19.90;52.10;;;;;;4454409;32;20317;-76
2022/12/19 11:42:53;;;;;;;;;;;19.80;52.10;;;;;;4446076;32;20032;-75
2022/12/19 11:45:23;;;;;;;;;;;19.70;52.40;;;;;;4453668;32;20053;-76
2022/12/19 11:47:55;;;;;;;;;;;19.70;52.60;;;;;;4455625;32;20025;-77
2022/12/19 11:50:37;;;;;;;;;;;19.60;52.70;;;;;;4456524;32;20194;-77
2022/12/19 11:53:16;;;;;;;;;;;19.50;52.90;;;;;;4456797;32;19984;-76
2022/12/19 11:55:43;;;;;;;;;;;19.40;53.10;;;;;;4452966;32;20108;-78
2022/12/19 11:58:10;;;;;;;;;;;19.40;53.30;;;;;;4438647;32;20422;-78
2022/12/19 12:00:39;;;;;;;;;;;19.30;53.50;;;;;;4457081;32;19983;-77
2022/12/19 12:03:23;;;;;;;;;;;19.20;53.70;;;;;;4462767;32;19970;-77
2022/12/19 12:05:50;;;;;;;;;;;19.20;54.60;;;;;;4462648;32;19970;-77
2022/12/19 12:08:41;;;;;;;;;;;19.10;55.10;;;;;;4463496;32;20405;-76
2022/12/19 12:11:09;;;;;;;;;;;19.10;55.50;;;;;;4463052;32;20384;-77
2022/12/19 12:13:44;;;;;;;;;;;19.10;55.00;;;;;;4463293;32;20056;-77
2022/12/19 12:16:11;;;;;;;;;;;19.10;54.80;;;;;;4435828;32;20008;-76
2022/12/19 12:18:43;;;;;;;;;;;19.10;54.80;;;;;;4463097;32;19970;-77
2022/12/19 12:21:18;;;;;;;;;;;19.20;54.80;;;;;;4448947;32;19970;-77
2022/12/19 12:23:53;;;;;;;;;;;19.30;54.70;;;;;;4456887;32;20415;-77
2022/12/19 12:26:24;;;;;;;;;;;19.40;54.70;;;;;;4452540;32;19989;-76
2022/12/19 12:28:50;;;;;;;;;;;19.50;54.80;;;;;;4458499;32;20075;-78
2022/12/19 12:31:19;;;;;;;;;;;19.60;54.60;;;;;;4452947;32;20003;-73
2022/12/19 12:33:58;;;;;;;;;;;19.70;54.60;;;;;;4458568;32;19997;-77
2022/12/19 12:36:28;;;;;;;;;;;19.80;54.70;;;;;;4454431;32;19978;-76
2022/12/19 12:38:57;;;;;;;;;;;19.90;54.60;;;;;;4458753;32;20394;-75
2022/12/19 12:42:02;;;;;;;;;;;20.00;54.80;;;;;;4454735;32;20211;-77
2022/12/19 12:44:13;;;;;;;;;;;20.10;56.00;;;;;;4456410;32;20400;-81
2022/12/19 12:46:45;;;;;;;;;;;20.20;55.20;;;;;;4440277;32;20052;-77
2022/12/19 12:49:26;;;;;;;;;;;20.20;55.30;;;;;;4448092;32;19993;-75
2022/12/19 12:51:52;;;;;;;;;;;20.30;55.60;;;;;;4460049;32;20075;-78
2022/12/19 12:54:19;;;;;;;;;;;20.30;55.60;;;;;;4452086;32;20142;-77
2022/12/19 12:56:45;;;;;;;;;;;20.30;55.50;;;;;;4447648;32;20317;-76
2022/12/19 12:59:19;;;;;;;;;;;20.40;55.50;;;;;;4447639;32;20383;-76
2022/12/19 13:01:53;;;;;;;;;;;20.40;55.50;;;;;;4453043;32;20400;-84
2022/12/19 13:04:19;;;;;;;;;;;20.40;55.40;;;;;;4461740;32;19966;-81
2022/12/19 13:06:48;;;;;;;;;;;20.40;55.30;;;;;;4447728;32;19989;-76
2022/12/19 13:09:16;;;;;;;;;;;20.40;55.30;;;;;;4461908;32;20030;-78
2022/12/19 13:14:33;;;;;;;;;;;20.50;55.30;;;;;;4462196;32;20020;-78
2022/12/19 13:17:07;;;;;;;;;;;20.50;55.30;;;;;;4461837;32;20001;-77
2022/12/19 13:19:34;;;;;;;;;;;20.50;55.20;;;;;;4448044;32;19989;-76
2022/12/19 13:22:03;;;;;;;;;;;20.50;55.00;;;;;;4462164;32;19982;-76
2022/12/19 13:24:44;;;;;;;;;;;20.50;55.00;;;;;;4462129;32;20517;-77
2022/12/19 13:27:19;;;;;;;;;;;20.50;55.00;;;;;;4452588;32;19994;-78
2022/12/19 13:30:06;;;;;;;;;;;20.50;54.90;;;;;;4461818;32;20076;-76
2022/12/19 13:32:52;;;;;;;;;;;20.50;54.90;;;;;;4462076;32;20439;-77
2022/12/19 13:35:17;;;;;;;;;;;20.50;55.00;;;;;;4461578;32;19985;-76
2022/12/19 13:37:49;;;;;;;;;;;20.50;55.00;;;;;;4461871;32;20347;-76
2022/12/19 13:40:26;;;;;;;;;;;20.60;55.00;;;;;;4461622;32;19989;-76
2022/12/19 13:45:47;;;;;;;;;;;20.60;54.90;;;;;;4451084;32;20351;-76
2022/12/19 13:48:15;;;;;;;;;;;20.60;55.00;;;;;;4461570;32;20400;-76
2022/12/19 13:50:41;;;;;;;;;;;20.60;55.00;;;;;;4461386;32;19974;-75
2022/12/19 13:53:10;;;;;;;;;;;20.60;54.90;;;;;;4461211;32;19994;-77
2022/12/19 13:55:38;;;;;;;;;;;20.60;54.90;;;;;;4461967;32;20486;-84
2022/12/19 13:58:03;;;;;;;;;;;20.60;55.00;;;;;;4462249;32;20014;-78
2022/12/19 14:00:34;;;;;;;;;;;20.50;55.00;;;;;;4447874;32;19982;-77
2022/12/19 14:03:01;;;;;;;;;;;20.50;55.20;;;;;;4461922;32;19986;-76
2022/12/19 14:05:36;;;;;;;;;;;20.50;55.20;;;;;;4447744;32;19970;-76
2022/12/19 14:08:04;;;;;;;;;;;20.50;55.30;;;;;;4461922;32;19989;-76
2022/12/19 14:10:38;;;;;;;;;;;20.50;55.30;;;;;;4461704;32;20096;-77
2022/12/19 14:15:50;;;;;;;;;;;20.50;55.30;;;;;;4462125;32;19967;-82
2022/12/19 14:18:19;;;;;;;;;;;20.50;55.30;;;;;;4461526;32;19977;-76
2022/12/19 14:20:45;;;;;;;;;;;20.50;55.30;;;;;;4447490;32;20040;-76
2022/12/19 14:23:11;;;;;;;;;;;20.50;55.30;;;;;;4458323;32;19978;-76
2022/12/19 14:25:40;;;;;;;;;;;20.50;55.30;;;;;;4461879;32;19985;-76
2022/12/19 14:28:09;;;;;;;;;;;20.50;55.30;;;;;;4461462;32;19970;-76
2022/12/19 14:30:54;;;;;;;;;;;20.50;55.30;;;;;;4461798;32;19975;-75
2022/12/19 14:33:23;;;;;;;;;;;20.40;55.30;;;;;;4459829;32;20051;-77
2022/12/19 14:35:51;;;;;;;;;;;20.40;55.40;;;;;;4459690;32;19982;-77
2022/12/19 14:38:19;;;;;;;;;;;20.40;55.50;;;;;;4459293;32;19982;-78
2022/12/19 14:40:46;;;;;;;;;;;20.40;55.50;;;;;;4446476;32;19992;-77
2022/12/19 14:46:10;;;;;;;;;;;20.40;55.60;;;;;;4457575;32;20485;-78